Time;durP1;ratioP1;P1;durP2;ratioP2;P2;SDS_P1;SDS_P2;PMS_P1;PMS_P2;Temp;Humidity;BMP_temperature;BMP_pressure;BME280_temperature;BME280_humidity;BME280_pressure;Samples;Min_cycle;Max_cycle;Signal;HPM_P1;HPM_P2
2023/12/04 00:00:22;;;;;;;;;;;-1.10;99.90;;;;;;5020261;28;20033;-76
2023/12/04 00:03:10;;;;;;;30.95;15.05;;;-1.00;99.90;;;;;;5009882;28;19921;-76
2023/12/04 00:05:57;;;;;;;32.72;15.85;;;-1.10;99.90;;;;;;4993442;28;20029;-76
2023/12/04 00:08:44;;;;;;;25.83;13.93;;;-1.10;99.90;;;;;;4996269;28;20080;-76
2023/12/04 00:11:30;;;;;;;30.40;16.05;;;-1.10;99.90;;;;;;4983614;28;20042;-76
2023/12/04 00:14:18;;;;;;;31.30;15.85;;;-1.10;99.90;;;;;;4977484;28;20033;-76
2023/12/04 00:17:05;;;;;;;33.10;16.02;;;-1.00;99.90;;;;;;4989668;28;20386;-76
2023/12/04 00:19:53;;;;;;;30.05;14.60;;;-1.10;99.90;;;;;;4980384;28;20037;-76
2023/12/04 00:22:41;;;;;;;31.23;15.25;;;-1.00;99.90;;;;;;5021110;28;20073;-76
2023/12/04 00:25:28;;;;;;;34.00;16.27;;;-1.10;99.90;;;;;;5019332;28;20081;-76
2023/12/04 00:28:14;;;;;;;32.30;15.90;;;-1.10;99.90;;;;;;4982571;28;20052;-76
2023/12/04 00:31:00;;;;;;;33.67;15.93;;;-1.10;99.90;;;;;;4969838;28;20129;-76
2023/12/04 00:33:48;;;;;;;32.83;15.93;;;-1.10;99.90;;;;;;4967647;28;20037;-76
2023/12/04 00:36:36;;;;;;;31.20;16.25;;;-1.00;99.90;;;;;;4984970;28;20076;-76
2023/12/04 00:39:23;;;;;;;32.35;17.08;;;-1.00;99.90;;;;;;4998885;28;20048;-76
2023/12/04 00:42:12;;;;;;;35.67;16.92;;;-1.10;99.90;;;;;;4993222;28;20580;-76
2023/12/04 00:44:59;;;;;;;33.90;17.00;;;-1.10;99.90;;;;;;5001439;28;20073;-76
2023/12/04 00:47:46;;;;;;;38.58;18.83;;;-1.10;99.90;;;;;;5002556;28;20042;-76
2023/12/04 00:50:34;;;;;;;30.23;13.77;;;-1.10;99.90;;;;;;5003979;28;20044;-76
2023/12/04 00:53:21;;;;;;;34.15;16.77;;;-1.20;99.90;;;;;;4988740;28;20370;-76
2023/12/04 00:56:09;;;;;;;33.13;16.20;;;-1.20;99.90;;;;;;5028339;28;20045;-76
2023/12/04 00:58:56;;;;;;;33.47;15.90;;;-1.30;99.90;;;;;;5029547;28;20042;-76
2023/12/04 01:01:43;;;;;;;29.00;13.20;;;-1.30;99.90;;;;;;5007295;28;20470;-76
2023/12/04 01:04:31;;;;;;;34.58;17.63;;;-1.20;99.90;;;;;;4996857;28;20037;-76
2023/12/04 01:07:18;;;;;;;31.73;15.35;;;-1.20;99.90;;;;;;5018627;28;20421;-77
2023/12/04 01:10:06;;;;;;;33.97;16.65;;;-1.20;99.90;;;;;;5015075;28;20038;-76
2023/12/04 01:12:54;;;;;;;34.60;16.33;;;-1.20;99.90;;;;;;4991161;28;20108;-76
2023/12/04 01:15:40;;;;;;;24.25;11.93;;;-1.20;99.90;;;;;;5016450;28;20064;-76
2023/12/04 01:18:27;;;;;;;27.58;14.50;;;-1.10;99.90;;;;;;5009154;28;20082;-77
2023/12/04 01:21:14;;;;;;;30.88;15.43;;;-1.10;99.90;;;;;;4989969;28;20038;-76
2023/12/04 01:24:01;;;;;;;33.35;16.05;;;-1.10;99.90;;;;;;5018249;28;20155;-76
2023/12/04 01:26:49;;;;;;;33.38;14.90;;;-1.10;99.90;;;;;;5000481;28;20436;-77
2023/12/04 01:29:36;;;;;;;30.77;14.95;;;-1.20;99.90;;;;;;4989132;28;20038;-76
2023/12/04 01:32:23;;;;;;;31.92;16.30;;;-1.10;99.90;;;;;;4992159;28;20030;-76
2023/12/04 01:35:11;;;;;;;23.52;12.88;;;-1.10;99.90;;;;;;4992397;28;20060;-76
2023/12/04 01:37:58;;;;;;;32.28;16.05;;;-1.20;99.90;;;;;;5005324;28;20069;-76
2023/12/04 01:40:45;;;;;;;37.08;17.35;;;-1.10;99.90;;;;;;5011125;28;20099;-77
2023/12/04 01:43:32;;;;;;;30.73;15.07;;;-1.20;99.90;;;;;;5003223;28;20347;-76
2023/12/04 01:46:20;;;;;;;30.45;15.52;;;-1.10;99.90;;;;;;4985833;28;20126;-76
2023/12/04 01:49:07;;;;;;;30.50;14.90;;;-1.10;99.90;;;;;;5000884;28;20466;-76
2023/12/04 01:51:54;;;;;;;31.58;15.07;;;-1.10;99.90;;;;;;5005321;28;20042;-76
2023/12/04 01:54:40;;;;;;;30.55;16.00;;;-1.10;99.90;;;;;;4981905;28;20054;-77
2023/12/04 01:57:27;;;;;;;31.35;14.75;;;-1.10;99.90;;;;;;4952260;28;20050;-76
2023/12/04 02:00:15;;;;;;;31.52;14.43;;;-1.10;99.90;;;;;;4979429;28;20038;-77
2023/12/04 02:03:02;;;;;;;;;;;-1.10;99.90;;;;;;4973664;28;20053;-76
2023/12/04 02:05:51;;;;;;;29.38;14.63;;;-1.00;99.90;;;;;;4987505;28;19909;-76
2023/12/04 02:08:39;;;;;;;32.58;15.88;;;-1.10;99.90;;;;;;4968168;28;20168;-76
2023/12/04 02:11:27;;;;;;;29.70;14.88;;;-1.10;99.90;;;;;;4995349;28;20100;-76
2023/12/04 02:14:14;;;;;;;29.95;15.48;;;-1.10;99.90;;;;;;4971794;28;20110;-76
2023/12/04 02:17:01;;;;;;;32.85;15.75;;;-1.20;99.90;;;;;;4988604;28;20596;-74
2023/12/04 02:19:48;;;;;;;31.88;15.90;;;-1.20;99.90;;;;;;4977414;28;20431;-74
2023/12/04 02:22:35;;;;;;;29.92;15.35;;;-1.20;99.90;;;;;;5008884;28;20041;-74
2023/12/04 02:25:23;;;;;;;22.80;13.90;;;-1.20;99.90;;;;;;4987575;28;20034;-74
2023/12/04 02:28:11;;;;;;;27.60;13.95;;;-1.20;99.90;;;;;;4983780;28;20049;-74
2023/12/04 02:30:59;;;;;;;30.48;15.15;;;-1.20;99.90;;;;;;4987280;28;20045;-74
2023/12/04 02:33:45;;;;;;;29.45;13.63;;;-1.20;99.90;;;;;;4974567;28;20456;-74
2023/12/04 02:36:33;;;;;;;28.10;13.10;;;-1.20;99.90;;;;;;4962028;28;20479;-74
2023/12/04 02:39:20;;;;;;;27.70;14.15;;;-1.10;99.90;;;;;;4988502;28;20081;-74
2023/12/04 02:42:07;;;;;;;22.98;11.25;;;-1.00;99.90;;;;;;5001861;28;20390;-74
2023/12/04 02:44:54;;;;;;;25.95;13.88;;;-1.00;99.90;;;;;;4967787;28;20487;-74
2023/12/04 02:47:42;;;;;;;27.10;12.93;;;-1.00;99.90;;;;;;4984417;28;20129;-74
2023/12/04 02:50:29;;;;;;;20.67;9.73;;;-1.00;99.90;;;;;;4978633;28;20038;-74
2023/12/04 02:53:16;;;;;;;25.58;12.43;;;-1.10;99.90;;;;;;4981290;28;20039;-74
2023/12/04 02:56:04;;;;;;;18.35;9.23;;;-1.10;99.90;;;;;;4999140;28;20141;-74
2023/12/04 02:58:51;;;;;;;25.40;13.07;;;-1.10;99.90;;;;;;4998689;28;20539;-74
2023/12/04 03:01:38;;;;;;;27.67;13.50;;;-1.10;99.90;;;;;;4993428;28;20041;-74
2023/12/04 03:04:28;;;;;;;23.17;11.80;;;-1.10;99.90;;;;;;4973904;28;20077;-74
2023/12/04 03:07:15;;;;;;;25.95;12.13;;;-1.10;99.90;;;;;;4973659;28;20030;-74
2023/12/04 03:10:03;;;;;;;24.80;13.15;;;-1.10;99.90;;;;;;4980931;28;20100;-74
2023/12/04 03:12:49;;;;;;;;;;;-1.10;99.90;;;;;;4983669;28;20034;-75
2023/12/04 03:15:36;;;;;;;;;;;-1.00;99.90;;;;;;5003578;28;19924;-75
2023/12/04 03:18:25;;;;;;;;;;;-1.00;99.90;;;;;;5002179;28;20281;-74
2023/12/04 03:21:12;;;;;;;;;;;-1.00;99.90;;;;;;5011403;28;20002;-74
2023/12/04 03:23:59;;;;;;;;;;;-1.00;99.90;;;;;;5011948;28;19922;-74
2023/12/04 03:26:46;;;;;;;;;;;-1.00;99.90;;;;;;4993721;28;19993;-74
2023/12/04 03:29:32;;;;;;;;;;;-0.90;99.90;;;;;;5016269;28;19920;-74
2023/12/04 03:32:20;;;;;;;;;;;-0.90;99.90;;;;;;4993014;28;19913;-74
2023/12/04 03:35:07;;;;;;;;;;;-0.80;99.90;;;;;;4996352;28;19909;-74
2023/12/04 03:37:53;;;;;;;;;;;-0.80;99.90;;;;;;4997727;28;19963;-74
2023/12/04 03:40:40;;;;;;;;;;;-0.70;99.90;;;;;;5000628;28;19924;-74
2023/12/04 03:43:27;;;;;;;;;;;-0.70;99.90;;;;;;4997999;28;19939;-74
2023/12/04 03:46:14;;;;;;;;;;;-0.70;99.90;;;;;;5008775;28;20004;-74
2023/12/04 03:49:00;;;;;;;;;;;-0.70;99.90;;;;;;4998047;28;19996;-74
2023/12/04 03:51:47;;;;;;;;;;;-0.60;99.90;;;;;;4986137;28;19952;-74
2023/12/04 03:54:33;;;;;;;;;;;-0.60;99.90;;;;;;5022385;28;20641;-74
2023/12/04 03:57:20;;;;;;;;;;;-0.60;99.90;;;;;;5012958;28;20285;-74
2023/12/04 04:00:09;;;;;;;;;;;-0.50;99.90;;;;;;5019075;28;19945;-74
2023/12/04 04:02:55;;;;;;;;;;;-0.60;99.90;;;;;;5016446;28;19917;-74
2023/12/04 04:05:42;;;;;;;;;;;-0.60;99.90;;;;;;5012147;28;19910;-74
2023/12/04 04:08:29;;;;;;;;;;;-0.50;99.90;;;;;;4993220;28;20234;-74
2023/12/04 04:11:16;;;;;;;;;;;-0.60;99.90;;;;;;4982643;28;20336;-74
2023/12/04 04:14:03;;;;;;;;;;;-0.50;99.90;;;;;;5019561;28;19914;-74
2023/12/04 04:16:51;;;;;;;;;;;-0.50;99.90;;;;;;4997178;28;19920;-74
2023/12/04 04:19:38;;;;;;;;;;;-0.50;99.90;;;;;;5012340;28;19921;-75
2023/12/04 04:22:25;;;;;;;;;;;-0.40;99.90;;;;;;4995185;28;19914;-74
2023/12/04 04:25:12;;;;;;;;;;;-0.40;99.90;;;;;;4996965;28;19945;-74
2023/12/04 04:27:59;;;;;;;;;;;-0.40;99.90;;;;;;5017645;28;19913;-74
2023/12/04 04:30:46;;;;;;;;;;;-0.40;99.90;;;;;;4982061;28;19968;-74
2023/12/04 04:33:33;;;;;;;;;;;-0.30;99.90;;;;;;4991281;28;19941;-74
2023/12/04 04:36:20;;;;;;;;;;;-0.30;99.90;;;;;;4974526;28;19955;-74
2023/12/04 04:39:06;;;;;;;;;;;-0.30;99.90;;;;;;4998793;28;19925;-74
2023/12/04 04:41:54;;;;;;;;;;;-0.30;99.90;;;;;;4994539;28;20231;-74
2023/12/04 04:44:41;;;;;;;;;;;-0.30;99.90;;;;;;5011279;28;19913;-74
2023/12/04 04:47:28;;;;;;;;;;;-0.30;99.90;;;;;;4988134;28;20326;-74
2023/12/04 04:50:16;;;;;;;;;;;-0.30;99.90;;;;;;5019826;28;19913;-74
2023/12/04 04:53:03;;;;;;;;;;;-0.30;99.90;;;;;;5001457;28;19943;-74
2023/12/04 04:55:50;;;;;;;;;;;-0.20;99.90;;;;;;5022344;28;19928;-74
2023/12/04 04:58:37;;;;;;;;;;;-0.20;99.90;;;;;;5019864;28;19976;-74
2023/12/04 05:01:25;;;;;;;;;;;-0.20;99.90;;;;;;5027491;28;19914;-74
2023/12/04 05:04:11;;;;;;;;;;;-0.20;99.90;;;;;;5025628;28;19914;-74
2023/12/04 05:06:58;;;;;;;;;;;-0.10;99.90;;;;;;5021549;28;20567;-75
2023/12/04 05:09:45;;;;;;;;;;;-0.10;99.90;;;;;;5017814;28;19941;-74
2023/12/04 05:12:32;;;;;;;;;;;-0.10;99.90;;;;;;5036121;28;19913;-74
2023/12/04 05:15:18;;;;;;;;;;;-0.10;99.90;;;;;;5032359;28;19909;-76
2023/12/04 05:18:06;;;;;;;;;;;0.00;99.90;;;;;;5012136;28;19923;-76
2023/12/04 05:20:53;;;;;;;;;;;0.00;99.90;;;;;;5028909;28;19909;-77
2023/12/04 05:23:40;;;;;;;;;;;0.00;99.90;;;;;;4989980;28;20249;-76
2023/12/04 05:26:28;;;;;;;;;;;0.00;99.90;;;;;;5013603;28;20338;-76
2023/12/04 05:29:14;;;;;;;;;;;0.00;99.90;;;;;;5002088;28;19910;-75
2023/12/04 05:32:01;;;;;;;;;;;0.00;99.90;;;;;;5033122;28;19920;-75
2023/12/04 05:34:48;;;;;;;;;;;0.10;99.90;;;;;;5026543;28;19924;-75
2023/12/04 05:37:35;;;;;;;;;;;0.10;99.90;;;;;;5024868;28;19960;-76
2023/12/04 05:40:21;;;;;;;;;;;0.10;99.90;;;;;;4980651;28;19909;-75
2023/12/04 05:43:07;;;;;;;;;;;0.10;99.90;;;;;;5003448;28;20318;-75
2023/12/04 05:45:53;;;;;;;;;;;0.10;99.90;;;;;;5004574;28;20245;-74
2023/12/04 05:48:41;;;;;;;;;;;0.10;99.90;;;;;;5006298;28;19910;-75
2023/12/04 05:51:26;;;;;;;;;;;0.10;99.90;;;;;;5015334;28;20321;-74
2023/12/04 05:54:13;;;;;;;;;;;0.10;99.90;;;;;;5010169;28;19917;-75
2023/12/04 05:57:00;;;;;;;;;;;0.20;99.90;;;;;;5009348;28;19917;-75
2023/12/04 05:59:47;;;;;;;;;;;0.10;99.90;;;;;;5024611;28;19917;-75
2023/12/04 06:02:34;;;;;;;;;;;0.20;99.90;;;;;;5033827;28;20341;-75
2023/12/04 06:05:23;;;;;;;;;;;0.20;99.90;;;;;;4985458;28;19913;-75
2023/12/04 06:08:10;;;;;;;;;;;0.20;99.90;;;;;;4984712;28;19972;-75
2023/12/04 06:10:57;;;;;;;;;;;0.20;99.90;;;;;;4988776;28;19914;-74
2023/12/04 06:13:45;;;;;;;;;;;0.20;99.90;;;;;;4999417;28;19913;-74
2023/12/04 06:16:32;;;;;;;;;;;0.20;99.90;;;;;;5016185;28;19909;-74
2023/12/04 06:19:19;;;;;;;;;;;0.30;99.90;;;;;;5001368;28;19909;-74
2023/12/04 06:22:07;;;;;;;;;;;0.30;99.90;;;;;;5015906;28;19924;-74
2023/12/04 06:24:54;;;;;;;;;;;0.20;99.90;;;;;;5024170;28;20237;-74
2023/12/04 06:27:40;;;;;;;;;;;0.30;99.90;;;;;;5000236;28;19992;-74
2023/12/04 06:30:26;;;;;;;;;;;0.30;99.90;;;;;;4999994;28;20281;-74
2023/12/04 06:33:15;;;;;;;;;;;0.30;99.90;;;;;;4990128;28;19913;-74
2023/12/04 06:36:02;;;;;;;;;;;0.30;99.90;;;;;;5001766;28;19917;-74
2023/12/04 06:38:49;;;;;;;;;;;0.40;99.90;;;;;;5000055;28;19965;-77
2023/12/04 06:41:36;;;;;;;;;;;0.30;99.90;;;;;;4997057;28;19968;-76
2023/12/04 06:44:24;;;;;;;;;;;0.30;99.90;;;;;;5002566;28;19914;-76
2023/12/04 06:47:11;;;;;;;;;;;0.30;99.90;;;;;;4984030;28;20327;-77
2023/12/04 06:49:58;;;;;;;;;;;0.40;99.90;;;;;;4985619;28;19918;-76
2023/12/04 06:52:46;;;;;;;;;;;0.30;99.90;;;;;;4998763;28;19949;-76
2023/12/04 06:55:33;;;;;;;;;;;0.30;99.90;;;;;;5017038;28;19917;-77
2023/12/04 06:58:19;;;;;;;;;;;0.40;99.90;;;;;;5017071;28;19913;-76
2023/12/04 07:01:05;;;;;;;;;;;0.40;99.90;;;;;;5001057;28;20650;-75
2023/12/04 07:03:51;;;;;;;;;;;0.40;99.90;;;;;;5010170;28;20314;-76
2023/12/04 07:06:38;;;;;;;;;;;0.40;99.90;;;;;;5013273;28;20292;-75
2023/12/04 07:09:24;;;;;;;;;;;0.40;99.90;;;;;;4997639;28;19914;-76
2023/12/04 07:12:10;;;;;;;;;;;0.40;99.90;;;;;;5000948;28;19956;-76
2023/12/04 07:14:56;;;;;;;;;;;0.40;99.90;;;;;;4977737;28;19910;-76
2023/12/04 07:17:42;;;;;;;;;;;0.40;99.90;;;;;;5012821;28;19909;-76
2023/12/04 07:20:28;;;;;;;;;;;0.40;99.90;;;;;;4977349;28;19910;-76
2023/12/04 07:23:14;;;;;;;;;;;0.40;99.90;;;;;;4978100;28;19914;-76
2023/12/04 07:25:59;;;;;;;;;;;0.40;99.90;;;;;;4963956;28;19910;-76
2023/12/04 07:28:45;;;;;;;;;;;0.50;99.90;;;;;;4977596;28;19910;-77
2023/12/04 07:31:31;;;;;;;;;;;0.50;99.90;;;;;;4990269;28;20207;-76
2023/12/04 07:34:17;;;;;;;;;;;0.50;99.90;;;;;;5010895;28;20238;-76
2023/12/04 07:37:03;;;;;;;;;;;0.50;99.90;;;;;;4998069;28;19945;-76
2023/12/04 07:39:49;;;;;;;;;;;0.50;99.90;;;;;;5016241;28;19909;-76
2023/12/04 07:42:35;;;;;;;;;;;0.60;99.90;;;;;;5008250;28;19910;-76
2023/12/04 07:45:21;;;;;;;;;;;0.50;99.90;;;;;;5012106;28;20382;-76
2023/12/04 07:48:07;;;;;;;;;;;0.60;99.90;;;;;;5011909;28;19914;-77
2023/12/04 07:50:53;;;;;;;;;;;0.60;99.90;;;;;;4991911;28;19909;-76
2023/12/04 07:53:39;;;;;;;;;;;0.60;99.90;;;;;;4963103;28;20342;-75
2023/12/04 07:56:25;;;;;;;;;;;0.50;99.90;;;;;;4984930;28;19977;-76
2023/12/04 07:59:11;;;;;;;;;;;0.50;99.90;;;;;;4964864;28;19972;-76
2023/12/04 08:01:56;;;;;;;;;;;0.60;99.90;;;;;;4977907;28;19910;-76
2023/12/04 08:04:42;;;;;;;;;;;0.60;99.90;;;;;;4961817;28;20258;-76
2023/12/04 08:07:29;;;;;;;;;;;0.70;99.90;;;;;;4980963;28;19936;-76
2023/12/04 08:10:14;;;;;;;;;;;0.70;99.90;;;;;;4983453;28;19913;-76
2023/12/04 08:13:00;;;;;;;;;;;0.70;99.90;;;;;;4980882;28;19921;-76
2023/12/04 08:15:46;;;;;;;;;;;0.70;99.90;;;;;;4983871;28;19910;-76
2023/12/04 08:18:33;;;;;;;;;;;0.70;99.90;;;;;;4982465;28;20289;-76
2023/12/04 08:21:19;;;;;;;;;;;0.70;99.90;;;;;;4982133;28;19956;-77
2023/12/04 08:24:05;;;;;;;;;;;0.70;99.90;;;;;;4971687;28;19917;-77
2023/12/04 08:26:51;;;;;;;;;;;0.70;99.90;;;;;;4982880;28;20323;-77
2023/12/04 08:29:39;;;;;;;;;;;0.70;99.90;;;;;;4984174;28;19976;-77
2023/12/04 08:32:26;;;;;;;;;;;0.70;99.90;;;;;;4982504;28;20054;-77
2023/12/04 08:35:12;;;;;;;;;;;0.70;99.90;;;;;;4966477;28;19925;-76
2023/12/04 08:37:58;;;;;;;;;;;0.70;99.90;;;;;;4983557;28;19920;-77
2023/12/04 08:40:44;;;;;;;;;;;0.80;99.90;;;;;;4975681;28;19917;-76
2023/12/04 08:43:31;;;;;;;;;;;0.80;99.90;;;;;;4963831;28;19914;-76
2023/12/04 08:46:17;;;;;;;;;;;0.80;99.90;;;;;;4964859;28;19909;-76
2023/12/04 08:49:04;;;;;;;;;;;0.80;99.90;;;;;;4976951;28;19924;-76
2023/12/04 08:51:51;;;;;;;;;;;0.80;99.90;;;;;;4978922;28;19914;-76
2023/12/04 08:54:43;;;;;;;;;;;0.80;99.90;;;;;;4962948;28;19922;-76
2023/12/04 08:57:29;;;;;;;;;;;0.70;99.90;;;;;;4964008;28;19910;-76
2023/12/04 09:00:15;;;;;;;;;;;0.70;99.90;;;;;;4963555;28;19954;-76
2023/12/04 09:03:01;;;;;;;;;;;0.70;99.90;;;;;;4983615;28;19913;-77
2023/12/04 09:05:50;;;;;;;;;;;0.70;99.90;;;;;;5014231;28;19920;-76
2023/12/04 09:08:36;;;;;;;;;;;0.60;99.90;;;;;;4988167;28;20000;-77
2023/12/04 09:11:22;;;;;;;;;;;0.60;99.90;;;;;;4958580;28;19910;-76
2023/12/04 09:14:07;;;;;;;;;;;0.60;99.90;;;;;;4980889;28;19923;-76
2023/12/04 09:16:53;;;;;;;;;;;0.70;99.90;;;;;;4982788;28;19921;-76
2023/12/04 09:19:39;;;;;;;;;;;0.70;99.90;;;;;;4981965;28;20519;-76
2023/12/04 09:22:25;;;;;;;;;;;0.80;99.90;;;;;;4996987;28;20219;-76
2023/12/04 09:25:11;;;;;;;;;;;0.90;99.90;;;;;;4981144;28;20000;-76
2023/12/04 09:27:57;;;;;;;;;;;0.90;99.90;;;;;;4984417;28;19988;-76
2023/12/04 09:30:43;;;;;;;;;;;1.00;99.90;;;;;;4949105;28;19992;-76
2023/12/04 09:33:29;;;;;;;;;;;1.10;99.90;;;;;;4951512;28;19910;-76
2023/12/04 09:36:15;;;;;;;;;;;1.10;99.90;;;;;;4964980;28;19914;-76
2023/12/04 09:39:01;;;;;;;;;;;1.10;99.90;;;;;;4965050;28;20215;-76
2023/12/04 09:41:47;;;;;;;;;;;1.20;99.90;;;;;;4963517;28;19909;-76
2023/12/04 09:44:32;;;;;;;;;;;1.20;99.90;;;;;;5003996;28;19924;-76
2023/12/04 09:47:18;;;;;;;;;;;1.20;99.90;;;;;;4965953;28;19910;-76
2023/12/04 09:50:05;;;;;;;;;;;1.30;99.90;;;;;;4969328;28;19913;-76
2023/12/04 09:52:52;;;;;;;;;;;1.30;99.90;;;;;;4986353;28;19940;-76
2023/12/04 09:55:38;;;;;;;;;;;1.40;99.90;;;;;;5004599;28;19991;-76
2023/12/04 09:58:25;;;;;;;;;;;1.40;99.90;;;;;;4997293;28;20008;-76
2023/12/04 10:01:11;;;;;;;;;;;1.50;99.90;;;;;;5002336;28;19920;-76
2023/12/04 10:03:57;;;;;;;;;;;1.50;99.90;;;;;;4992001;28;19924;-76
2023/12/04 10:06:43;;;;;;;;;;;1.50;99.90;;;;;;5000306;28;19974;-76
2023/12/04 10:09:29;;;;;;;;;;;1.60;99.90;;;;;;4972158;28;19985;-76
2023/12/04 10:12:18;;;;;;;;;;;1.60;99.90;;;;;;4986243;28;19993;-76
2023/12/04 10:15:11;;;;;;;;;;;1.70;99.90;;;;;;4998904;28;20239;-76
2023/12/04 10:17:57;;;;;;;;;;;1.70;99.90;;;;;;4987666;28;19909;-73
2023/12/04 10:21:07;;;;;;;;;;;1.80;99.90;;;;;;5001459;28;19909;-73
2023/12/04 10:23:53;;;;;;;;;;;1.80;99.90;;;;;;4966279;28;19925;-73
2023/12/04 10:26:49;;;;;;;;;;;1.80;99.90;;;;;;4992118;28;19909;-73
2023/12/04 10:29:42;;;;;;;;;;;1.90;99.90;;;;;;4999183;28;19918;-74
2023/12/04 10:32:28;;;;;;;;;;;1.90;99.90;;;;;;4999110;28;19914;-73
2023/12/04 10:35:14;;;;;;;;;;;1.90;99.90;;;;;;4998949;28;19910;-73
2023/12/04 10:38:00;;;;;;;;;;;1.90;99.90;;;;;;5002518;28;20004;-74
2023/12/04 10:40:46;;;;;;;;;;;2.00;99.90;;;;;;4979566;28;19980;-74
2023/12/04 10:43:32;;;;;;;;;;;2.00;99.90;;;;;;4964638;28;19914;-74
2023/12/04 10:46:18;;;;;;;;;;;2.00;99.90;;;;;;4986852;28;19914;-74
2023/12/04 10:49:04;;;;;;;;;;;2.10;99.90;;;;;;4983672;28;20311;-74
2023/12/04 10:51:50;;;;;;;;;;;2.10;99.90;;;;;;4966354;28;19956;-74
2023/12/04 10:54:36;;;;;;;;;;;2.10;99.90;;;;;;4978947;28;19929;-74
2023/12/04 10:57:26;;;;;;;;;;;2.20;99.90;;;;;;4992286;28;19914;-74
2023/12/04 11:00:16;;;;;;;;;;;2.20;99.90;;;;;;5025969;28;19910;-74
2023/12/04 11:03:07;;;;;;;;;;;2.20;99.90;;;;;;4989921;28;19920;-74
2023/12/04 11:05:59;;;;;;;;;;;2.30;99.90;;;;;;5010119;28;19913;-75
2023/12/04 11:08:45;;;;;;;;;;;2.30;99.90;;;;;;4996987;28;19992;-75
2023/12/04 11:11:32;;;;;;;;;;;2.30;99.90;;;;;;5024654;28;19910;-74
2023/12/04 11:14:19;;;;;;;;;;;2.20;99.90;;;;;;4995248;28;19917;-74
2023/12/04 11:17:06;;;;;;;;;;;2.10;99.90;;;;;;4997503;28;19913;-74
2023/12/04 11:19:54;;;;;;;;;;;2.10;99.90;;;;;;5008920;28;19913;-74
2023/12/04 11:22:40;;;;;;;;;;;2.20;99.90;;;;;;5025273;28;19916;-74
2023/12/04 11:25:26;;;;;;;;;;;2.20;99.90;;;;;;5003520;28;19914;-74
2023/12/04 11:28:12;;;;;;;;;;;2.30;99.90;;;;;;4996843;28;19925;-74
2023/12/04 11:30:58;;;;;;;;;;;2.30;99.90;;;;;;5010569;28;19953;-74
2023/12/04 11:33:44;;;;;;;;;;;2.30;99.90;;;;;;4995233;28;19919;-74
2023/12/04 11:36:30;;;;;;;;;;;2.30;99.90;;;;;;5029097;28;19910;-75
2023/12/04 11:39:16;;;;;;;;;;;2.40;99.90;;;;;;4999174;28;19976;-74
2023/12/04 11:42:02;;;;;;;;;;;2.30;99.90;;;;;;4997375;28;19921;-75
2023/12/04 11:44:49;;;;;;;;;;;2.20;99.90;;;;;;5009840;28;19937;-74
2023/12/04 11:47:51;;;;;;;;;;;2.20;99.90;;;;;;4977326;28;20009;-74
2023/12/04 11:50:37;;;;;;;;;;;2.10;99.90;;;;;;5000821;28;19913;-74
2023/12/04 11:53:22;;;;;;;;;;;2.10;99.90;;;;;;5008343;28;20348;-74
2023/12/04 11:56:09;;;;;;;;;;;2.20;99.90;;;;;;5010326;28;19917;-75
2023/12/04 11:58:55;;;;;;;;;;;2.20;99.90;;;;;;5003873;28;19952;-74
2023/12/04 12:01:42;;;;;;;;;;;2.30;99.90;;;;;;5013305;28;19929;-74
2023/12/04 12:04:28;;;;;;;;;;;2.30;99.90;;;;;;5020968;28;19984;-74
2023/12/04 12:07:14;;;;;;;;;;;2.30;99.90;;;;;;5021350;28;19936;-74
2023/12/04 12:10:00;;;;;;;;;;;2.30;99.90;;;;;;5014624;28;19920;-74
2023/12/04 12:12:46;;;;;;;;;;;2.30;99.90;;;;;;5004522;28;19910;-75
2023/12/04 12:15:33;;;;;;;;;;;2.30;99.90;;;;;;5003070;28;19910;-75
2023/12/04 12:18:18;;;;;;;;;;;2.30;99.90;;;;;;4997880;28;19909;-74
2023/12/04 12:21:05;;;;;;;;;;;2.30;99.90;;;;;;4995233;28;19971;-74
2023/12/04 12:23:51;;;;;;;;;;;2.20;99.90;;;;;;4997262;28;19917;-74
2023/12/04 12:26:37;;;;;;;;;;;2.30;99.90;;;;;;5011499;28;19920;-74
2023/12/04 12:29:22;;;;;;;;;;;2.20;99.90;;;;;;5015175;28;19982;-74
2023/12/04 12:32:08;;;;;;;;;;;2.20;99.90;;;;;;4993929;28;19932;-74
2023/12/04 12:34:54;;;;;;;;;;;2.20;99.90;;;;;;4991862;28;19910;-74
2023/12/04 12:37:40;;;;;;;;;;;2.20;99.90;;;;;;5003045;28;19913;-74
2023/12/04 12:40:27;;;;;;;;;;;2.20;99.90;;;;;;5017977;28;19917;-75
2023/12/04 12:43:13;;;;;;;;;;;2.10;99.90;;;;;;5015672;28;19917;-75
2023/12/04 12:45:59;;;;;;;;;;;2.10;99.90;;;;;;5007326;28;20333;-75
2023/12/04 12:48:46;;;;;;;;;;;2.10;99.90;;;;;;4999872;28;20353;-75
2023/12/04 12:51:32;;;;;;;;;;;2.10;99.90;;;;;;5026069;28;19920;-74
2023/12/04 12:54:18;;;;;;;;;;;2.10;99.90;;;;;;4996467;28;19953;-74
2023/12/04 12:57:04;;;;;;;;;;;2.10;99.90;;;;;;4994364;28;19993;-74
2023/12/04 12:59:50;;;;;;;;;;;2.10;99.90;;;;;;5000618;28;19910;-74
2023/12/04 13:02:37;;;;;;;;;;;2.00;99.90;;;;;;4978855;28;19910;-75
2023/12/04 13:05:23;;;;;;;;;;;2.10;99.90;;;;;;4995675;28;20344;-74
2023/12/04 13:08:09;;;;;;;;;;;2.00;99.90;;;;;;4999287;28;20323;-75
2023/12/04 13:10:55;;;;;;;;;;;2.10;99.90;;;;;;5002713;28;19924;-74
2023/12/04 13:13:40;;;;;;;;;;;2.10;99.90;;;;;;4990685;28;20277;-74
2023/12/04 13:16:26;;;;;;;;;;;2.10;99.90;;;;;;4983754;28;19984;-75
2023/12/04 13:19:12;;;;;;;;;;;2.10;99.90;;;;;;4975832;28;20226;-74
2023/12/04 13:21:58;;;;;;;;;;;2.00;99.90;;;;;;4985087;28;20056;-75
2023/12/04 13:24:44;;;;;;;;;;;2.00;99.90;;;;;;4987009;28;20000;-74
2023/12/04 13:27:30;;;;;;;;;;;2.00;99.90;;;;;;4997024;28;19916;-74
2023/12/04 13:30:16;;;;;;;;;;;2.00;99.90;;;;;;4995754;28;20242;-75
2023/12/04 13:33:02;;;;;;;;;;;2.00;99.90;;;;;;4984606;28;19941;-74
2023/12/04 13:35:48;;;;;;;;;;;2.00;99.90;;;;;;4988189;28;19919;-74
2023/12/04 13:38:35;;;;;;;;;;;1.90;99.90;;;;;;4985292;28;19909;-74
2023/12/04 13:44:25;;;;;;;;;;;1.90;99.90;;;;;;4978995;28;20303;-74
2023/12/04 13:47:12;;;;;;;;;;;1.90;99.90;;;;;;5002743;28;19941;-74
2023/12/04 13:49:58;;;;;;;;;;;1.90;99.90;;;;;;4992035;28;19955;-74
2023/12/04 13:52:44;;;;;;;;;;;1.80;99.90;;;;;;4999825;28;19909;-74
2023/12/04 13:58:37;;;;;;;;;;;1.90;99.90;;;;;;4987111;28;19916;-74
2023/12/04 14:01:24;;;;;;;;;;;1.80;99.90;;;;;;4999077;28;20322;-74
2023/12/04 14:04:13;;;;;;;;;;;1.70;99.90;;;;;;5022451;28;19948;-74
2023/12/04 14:06:59;;;;;;;;;;;1.70;99.90;;;;;;5014422;28;20247;-74
2023/12/04 14:09:45;;;;;;;;;;;1.70;99.90;;;;;;4991948;28;19913;-75
2023/12/04 14:12:31;;;;;;;;;;;1.70;99.90;;;;;;4999658;28;19910;-77
2023/12/04 14:15:17;;;;;;;;;;;1.70;99.90;;;;;;5018029;28;19913;-76
2023/12/04 14:18:03;;;;;;;;;;;1.70;99.90;;;;;;5030184;28;19971;-76
2023/12/04 14:20:49;;;;;;;;;;;1.70;99.90;;;;;;5016846;28;19920;-76
2023/12/04 14:23:35;;;;;;;;;;;1.70;99.90;;;;;;5030356;28;19924;-77
2023/12/04 14:26:21;;;;;;;;;;;1.60;99.90;;;;;;4992124;28;19914;-76
2023/12/04 14:29:07;;;;;;;;;;;1.60;99.90;;;;;;4984210;28;20238;-76
2023/12/04 14:31:53;;;;;;;;;;;1.60;99.90;;;;;;4999663;28;19910;-77
2023/12/04 14:34:39;;;;;;;;;;;1.60;99.90;;;;;;4999098;28;19921;-76
2023/12/04 14:37:25;;;;;;;;;;;1.60;99.90;;;;;;4979786;28;19949;-76
2023/12/04 14:40:12;;;;;;;;;;;1.60;99.90;;;;;;4995637;28;20314;-77
2023/12/04 14:42:58;;;;;;;;;;;1.60;99.90;;;;;;5010317;28;19969;-77
2023/12/04 14:45:44;;;;;;;;;;;1.50;99.90;;;;;;4998944;28;19923;-76
2023/12/04 14:48:30;;;;;;;;;;;1.50;99.90;;;;;;5012885;28;19910;-74
2023/12/04 14:51:16;;;;;;;;;;;1.50;99.90;;;;;;5008743;28;19913;-74
2023/12/04 15:12:23;;;;;;;;;;;1.40;99.90;;;;;;5019684;28;19917;-74
2023/12/04 15:21:37;;;;;;;;;;;1.40;99.90;;;;;;4969996;28;20035;-75
2023/12/04 15:24:23;;;;;;;;;;;1.40;99.90;;;;;;4948383;28;19924;-74
2023/12/04 15:27:09;;;;;;;;;;;1.40;99.90;;;;;;4943862;29;20331;-74
2023/12/04 15:29:55;;;;;;;;;;;1.40;99.90;;;;;;4968142;28;20310;-74
2023/12/04 15:32:42;;;;;;;;;;;1.40;99.90;;;;;;4950392;28;19910;-74
2023/12/04 15:35:29;;;;;;;;;;;1.40;99.90;;;;;;4956037;29;20057;-74
2023/12/04 15:38:16;;;;;;;;;;;1.40;99.90;;;;;;4957058;28;19914;-74
2023/12/04 15:41:04;;;;;;;;;;;1.40;99.90;;;;;;4956929;28;20324;-74
2023/12/04 15:43:50;;;;;;;;;;;1.40;99.90;;;;;;4953526;28;20013;-74
2023/12/04 15:46:37;;;;;;;;;;;1.40;99.90;;;;;;4944109;28;20247;-74
2023/12/04 15:49:24;;;;;;;;;;;1.30;99.90;;;;;;4953033;28;19961;-74
2023/12/04 15:52:11;;;;;;;;;;;1.40;99.90;;;;;;4957401;28;19988;-76
2023/12/04 15:54:58;;;;;;;;;;;1.40;99.90;;;;;;4982927;28;19917;-76
2023/12/04 15:57:46;;;;;;;;;;;1.30;99.90;;;;;;5004011;28;19996;-77
2023/12/04 16:00:33;;;;;;;;;;;1.30;99.90;;;;;;5021604;28;20230;-77
2023/12/04 16:03:19;;;;;;;;;;;1.30;99.90;;;;;;5004343;28;19910;-77
2023/12/04 16:06:08;;;;;;;;;;;1.30;99.90;;;;;;5007779;28;19936;-77
2023/12/04 16:08:57;;;;;;;;;;;1.30;99.90;;;;;;5031674;28;19924;-76
2023/12/04 16:11:44;;;;;;;;;;;1.30;99.90;;;;;;5002938;28;19909;-76
2023/12/04 16:14:32;;;;;;;;;;;1.30;99.90;;;;;;4998469;28;19916;-76
2023/12/04 16:17:19;;;;;;;;;;;1.30;99.90;;;;;;4992815;28;19928;-76
2023/12/04 16:20:09;;;;;;;;;;;1.30;99.90;;;;;;5002566;28;19953;-74
2023/12/04 16:22:57;;;;;;;;;;;1.30;99.90;;;;;;5015971;28;19917;-74